Terminal Aerodrome Forecast
Issued by NWS Shreveport, LA

Home | Current Version | Previous Version | Text Only | Print | Product List | Glossary On
Versions: 1 2 3 4 5 6 7 8 9 10 11 12 13 14 15 16 17
318
FTUS44 KSHV 191406 AAA
TAFTXK
TAF AMD
KTXK 191406Z 1914/2012 VRB03KT 2SM BR OVC002
      TEMPO 1914/1916 1/2SM FG OVC002
     FM191600 VRB04KT 4SM BR OVC003
     FM191700 20004KT 6SM BR OVC006
     FM191900 20006KT P6SM SCT008 OVC012
     FM200000 18006KT P6SM BKN015
     FM200500 19009KT 6SM BR OVC007=

USA.gov is the U.S. government's official web portal to all federal, state and local government web resources and services.